Time;durP1;ratioP1;P1;durP2;ratioP2;P2;SDS_P1;SDS_P2;PMS_P1;PMS_P2;Temp;Humidity;BMP_temperature;BMP_pressure;BME280_temperature;BME280_humidity;BME280_pressure;Samples;Min_cycle;Max_cycle;Signal;HPM_P1;HPM_P2
2023/12/09 00:00:21;;;;;;;13.00;3.80;;;;;;;6.70;97.80;95304.81;4959134;28;20605;-81
2023/12/09 00:02:46;;;;;;;9.40;3.60;;;;;;;6.71;97.17;95316.78;4976054;28;20191;-80
2023/12/09 00:05:11;;;;;;;10.83;3.83;;;;;;;6.61;97.48;95320.25;4992210;28;20258;-80
2023/12/09 00:07:38;;;;;;;16.13;3.63;;;;;;;6.61;97.26;95315.09;4957485;28;20334;-80
2023/12/09 00:10:03;;;;;;;15.23;4.03;;;;;;;6.68;97.41;95316.22;4973510;28;20192;-81
2023/12/09 00:12:29;;;;;;;10.27;3.63;;;;;;;6.52;97.76;95320.09;4975780;28;20215;-81
2023/12/09 00:14:54;;;;;;;12.40;3.83;;;;;;;6.58;97.74;95325.69;4976762;28;20558;-80
2023/12/09 00:17:19;;;;;;;9.50;3.50;;;;;;;6.48;97.85;95326.47;4972299;28;20220;-80
2023/12/09 00:19:45;;;;;;;14.10;4.10;;;;;;;6.56;97.87;95319.84;4973726;28;20215;-80
2023/12/09 00:22:10;;;;;;;7.90;3.90;;;;;;;6.62;97.09;95330.44;4990791;28;20231;-80
2023/12/09 00:24:35;;;;;;;9.40;3.90;;;;;;;6.62;96.77;95325.28;4950933;28;20247;-80
2023/12/09 00:27:01;;;;;;;10.67;3.57;;;;;;;6.60;96.97;95313.47;4973713;28;20564;-81
2023/12/09 00:29:26;;;;;;;8.40;3.80;;;;;;;6.49;97.20;95320.34;4979368;28;20274;-80
2023/12/09 00:31:52;;;;;;;10.83;3.43;;;;;;;6.54;97.18;95322.56;4972059;28;20189;-80
2023/12/09 00:34:17;;;;;;;6.77;3.50;;;;;;;6.60;96.74;95326.38;4972043;28;20235;-80
2023/12/09 00:36:43;;;;;;;6.97;3.30;;;;;;;6.62;96.89;95327.06;4989367;28;20215;-80
2023/12/09 00:39:08;;;;;;;13.50;2.87;;;;;;;6.50;97.05;95327.13;4971741;28;20662;-79
2023/12/09 00:41:33;;;;;;;10.37;3.47;;;;;;;6.57;97.05;95334.38;4974123;28;20184;-80
2023/12/09 00:43:58;;;;;;;7.93;3.17;;;;;;;6.61;96.98;95330.59;4974360;28;20207;-80
2023/12/09 00:46:24;;;;;;;4.93;2.83;;;;;;;6.50;97.78;95329.72;4972495;28;20180;-80
2023/12/09 00:48:49;;;;;;;12.10;2.67;;;;;;;6.54;97.28;95327.72;4989275;28;20195;-79
2023/12/09 00:51:14;;;;;;;9.67;2.93;;;;;;;6.46;97.48;95325.78;4975765;28;20563;-80
2023/12/09 00:53:40;;;;;;;8.40;2.90;;;;;;;6.42;98.04;95334.69;4958756;28;20579;-80
2023/12/09 00:56:06;;;;;;;5.83;2.60;;;;;;;6.45;97.86;95331.88;4979441;28;20235;-80
2023/12/09 00:58:31;;;;;;;5.77;2.47;;;;;;;6.56;97.04;95330.97;4957137;28;20207;-80
2023/12/09 01:00:56;;;;;;;9.50;2.97;;;;;;;6.52;97.21;95337.31;4972743;28;20198;-80
2023/12/09 01:03:22;;;;;;;5.70;2.47;;;;;;;6.55;97.10;95336.28;4972335;28;20662;-80
2023/12/09 01:05:47;;;;;;;4.30;2.13;;;;;;;6.60;96.78;95344.44;4974089;28;20270;-80
2023/12/09 01:08:12;;;;;;;7.40;2.23;;;;;;;6.60;96.47;95345.25;4973511;28;20192;-81
2023/12/09 01:10:38;;;;;;;6.87;2.43;;;;;;;6.59;96.56;95347.97;4973977;28;20188;-80
2023/12/09 01:13:03;;;;;;;4.03;2.37;;;;;;;6.56;96.53;95349.03;4972775;28;20603;-80
2023/12/09 01:15:28;;;;;;;7.13;2.40;;;;;;;6.45;96.87;95349.94;4974185;28;20220;-80
2023/12/09 01:17:54;;;;;;;4.37;2.30;;;;;;;6.51;97.16;95352.00;4989574;28;20233;-80
2023/12/09 01:20:19;;;;;;;5.73;2.17;;;;;;;6.63;96.12;95350.16;4973320;28;20230;-80
2023/12/09 01:22:45;;;;;;;7.07;2.53;;;;;;;6.59;96.16;95350.53;4971422;28;20275;-80
2023/12/09 01:25:10;;;;;;;5.00;2.07;;;;;;;6.58;96.51;95361.81;4982170;28;20278;-80
2023/12/09 01:27:35;;;;;;;6.63;2.30;;;;;;;6.53;96.25;95365.56;4962641;28;20234;-80
2023/12/09 01:30:02;;;;;;;8.33;3.03;;;;;;;6.49;96.27;95371.13;4967248;28;20192;-80
2023/12/09 01:32:27;;;;;;;9.90;3.70;;;;;;;6.42;96.48;95365.66;4976060;28;20246;-80
2023/12/09 01:34:52;;;;;;;8.93;4.17;;;;;;;6.51;96.67;95369.22;4969590;28;20204;-80
2023/12/09 01:37:18;;;;;;;5.90;2.60;;;;;;;6.51;96.69;95374.41;4974034;28;20673;-80
2023/12/09 01:39:43;;;;;;;5.50;2.40;;;;;;;6.42;96.72;95375.16;4973618;28;20193;-80
2023/12/09 01:42:09;;;;;;;3.77;2.30;;;;;;;6.49;96.55;95381.44;4957013;28;20275;-80
2023/12/09 01:44:35;;;;;;;5.07;2.60;;;;;;;6.53;96.19;95388.78;4960777;28;20231;-80
2023/12/09 01:47:00;;;;;;;4.83;2.33;;;;;;;6.50;96.14;95396.78;4971439;28;20195;-80
2023/12/09 01:49:26;;;;;;;6.60;2.80;;;;;;;6.40;96.75;95401.06;4963203;28;20701;-80
2023/12/09 01:51:52;;;;;;;4.10;2.17;;;;;;;6.55;95.94;95399.00;4973902;28;20250;-80
2023/12/09 01:54:17;;;;;;;6.53;2.20;;;;;;;6.57;95.55;95394.53;4972124;28;20210;-80
2023/12/09 01:56:43;;;;;;;7.70;3.37;;;;;;;6.50;95.27;95403.72;4974052;28;20287;-80
2023/12/09 01:59:08;;;;;;;7.03;2.37;;;;;;;6.38;96.15;95405.56;4973916;28;20556;-80
2023/12/09 02:01:35;;;;;;;9.73;2.30;;;;;;;6.44;95.64;95412.75;4960532;28;20559;-80
2023/12/09 02:04:01;;;;;;;5.60;2.70;;;;;;;6.42;95.98;95399.19;4969839;28;20220;-80
2023/12/09 02:06:26;;;;;;;6.20;2.43;;;;;;;6.46;95.48;95399.78;4964758;28;20192;-80
2023/12/09 02:08:53;;;;;;;4.17;2.07;;;;;;;6.45;95.21;95398.94;4976537;28;20210;-80
2023/12/09 02:11:25;;;;;;;5.30;2.00;;;;;;;6.50;95.42;95395.97;4978884;28;20215;-80
2023/12/09 02:14:25;;;;;;;6.43;2.03;;;;;;;6.44;95.70;95386.97;4994504;28;20218;-80
2023/12/09 02:17:18;;;;;;;4.60;2.27;;;;;;;6.35;96.03;95392.06;4974683;28;20302;-80
2023/12/09 02:19:44;;;;;;;3.67;1.90;;;;;;;6.39;95.63;95393.47;4977282;28;20195;-80
2023/12/09 02:22:09;;;;;;;4.23;2.13;;;;;;;6.36;95.64;95388.53;4982151;28;20180;-80
2023/12/09 02:24:35;;;;;;;7.80;2.07;;;;;;;6.39;95.58;95383.16;4976939;28;20214;-80
2023/12/09 02:27:00;;;;;;;9.13;2.17;;;;;;;6.38;95.63;95376.38;4973577;28;20184;-80
2023/12/09 02:29:26;;;;;;;6.37;2.67;;;;;;;6.33;95.19;95376.72;4994240;28;20186;-80
2023/12/09 02:31:56;;;;;;;6.17;2.50;;;;;;;6.34;95.42;95367.22;4994485;28;20183;-80
2023/12/09 02:34:22;;;;;;;5.43;2.60;;;;;;;6.28;95.51;95373.72;4972470;28;20212;-80
2023/12/09 02:36:47;;;;;;;8.87;2.60;;;;;;;6.20;95.49;95374.34;4974885;28;20775;-80
2023/12/09 02:39:14;;;;;;;5.10;2.50;;;;;;;6.21;95.38;95370.00;4962599;28;20270;-80
2023/12/09 02:41:40;;;;;;;8.40;2.20;;;;;;;6.21;95.41;95355.34;4975750;28;20192;-80
2023/12/09 02:44:06;;;;;;;4.80;2.57;;;;;;;6.15;95.22;95358.41;4957691;28;20582;-80
2023/12/09 02:46:32;;;;;;;6.67;2.43;;;;;;;6.10;95.59;95352.84;4974973;28;20188;-80
2023/12/09 02:48:59;;;;;;;5.53;2.03;;;;;;;6.12;95.53;95356.09;4981136;28;20180;-80
2023/12/09 02:51:25;;;;;;;7.90;2.30;;;;;;;6.09;95.30;95351.19;4976570;28;20231;-81
2023/12/09 02:53:50;;;;;;;6.43;2.07;;;;;;;6.02;94.82;95346.66;4976603;28;20211;-80
2023/12/09 02:56:15;;;;;;;5.53;2.30;;;;;;;5.96;94.91;95342.81;4993799;28;20211;-81
2023/12/09 02:58:41;;;;;;;3.90;2.30;;;;;;;5.78;95.35;95337.34;4971838;28;20219;-81
2023/12/09 03:01:06;;;;;;;6.57;2.60;;;;;;;5.75;95.12;95332.47;4975836;28;20206;-80
2023/12/09 03:03:31;;;;;;;7.50;2.53;;;;;;;5.67;94.49;95327.91;4969034;28;20219;-80
2023/12/09 03:05:57;;;;;;;5.07;2.43;;;;;;;5.57;94.50;95323.63;4959325;28;20268;-80
2023/12/09 03:08:22;;;;;;;5.53;2.30;;;;;;;5.50;95.10;95322.47;4993239;28;20232;-80
2023/12/09 03:10:47;;;;;;;10.73;5.87;;;;;;;5.44;95.19;95321.19;4973947;28;20188;-80
2023/12/09 03:13:13;;;;;;;10.80;5.03;;;;;;;5.42;95.15;95319.69;4976945;28;20195;-81
2023/12/09 03:15:38;;;;;;;9.43;4.00;;;;;;;5.25;94.80;95313.28;4993145;28;20207;-80
2023/12/09 03:18:03;;;;;;;5.90;2.90;;;;;;;5.13;95.77;95309.13;4974376;28;20654;-80
2023/12/09 03:20:29;;;;;;;6.27;3.70;;;;;;;5.14;95.20;95315.91;4980090;28;20669;-81
2023/12/09 03:22:54;;;;;;;9.87;3.20;;;;;;;5.11;95.39;95322.09;4975488;28;20840;-80
2023/12/09 03:25:20;;;;;;;6.60;3.10;;;;;;;5.06;95.43;95311.34;4976005;28;20206;-80
2023/12/09 03:27:45;;;;;;;4.43;2.57;;;;;;;5.05;95.40;95312.28;4959417;28;20605;-80
2023/12/09 03:30:10;;;;;;;6.70;2.70;;;;;;;5.08;96.40;95309.47;4970976;28;20194;-80
2023/12/09 03:32:38;;;;;;;7.13;3.33;;;;;;;5.16;96.29;95296.81;4991777;28;20195;-80
2023/12/09 03:35:04;;;;;;;9.77;3.60;;;;;;;5.24;96.57;95297.03;4967714;28;20230;-80
2023/12/09 03:37:29;;;;;;;6.03;3.27;;;;;;;5.27;96.33;95291.63;4992610;28;20555;-80
2023/12/09 03:39:54;;;;;;;7.30;3.27;;;;;;;5.31;96.09;95292.22;4960232;28;20219;-80
2023/12/09 03:42:20;;;;;;;5.60;3.30;;;;;;;5.37;96.07;95295.09;4974464;28;20723;-80
2023/12/09 03:44:45;;;;;;;10.13;3.90;;;;;;;5.36;95.67;95306.34;4959216;28;20633;-80
2023/12/09 03:47:10;;;;;;;5.47;4.00;;;;;;;5.37;95.97;95314.91;4974977;28;20183;-81
2023/12/09 03:49:36;;;;;;;7.13;4.00;;;;;;;5.27;96.81;95319.94;4977877;28;20198;-80
2023/12/09 03:52:01;;;;;;;7.60;3.93;;;;;;;5.43;96.70;95316.19;4992029;28;20299;-80
2023/12/09 03:54:27;;;;;;;9.67;3.87;;;;;;;5.45;95.81;95320.25;4982346;28;20204;-80
2023/12/09 03:56:53;;;;;;;7.80;3.50;;;;;;;5.42;95.87;95314.53;4974432;28;20214;-80
2023/12/09 03:59:18;;;;;;;6.97;3.47;;;;;;;5.38;96.94;95304.47;4992527;28;20337;-80
2023/12/09 04:01:48;;;;;;;6.37;3.50;;;;;;;5.54;95.86;95295.53;4975120;28;20605;-80
2023/12/09 04:04:13;;;;;;;9.10;4.40;;;;;;;5.42;96.50;95306.81;4973171;28;20218;-80
2023/12/09 04:06:38;;;;;;;12.00;3.90;;;;;;;5.46;95.61;95303.03;4992515;28;20184;-80
2023/12/09 04:09:04;;;;;;;8.00;3.67;;;;;;;5.48;95.98;95314.03;4957525;28;20191;-80
2023/12/09 04:11:29;;;;;;;8.70;3.77;;;;;;;5.51;95.57;95311.22;4976003;28;20183;-80
2023/12/09 04:13:55;;;;;;;11.80;4.10;;;;;;;5.50;95.30;95309.59;4983407;28;20554;-80
2023/12/09 04:16:20;;;;;;;10.47;3.90;;;;;;;5.45;95.95;95311.72;4973795;28;20231;-79
2023/12/09 04:18:46;;;;;;;6.97;3.57;;;;;;;5.38;96.42;95309.63;4958372;28;20197;-80
2023/12/09 04:21:12;;;;;;;8.73;3.37;;;;;;;5.57;95.18;95313.31;4976560;28;20274;-80
2023/12/09 04:23:37;;;;;;;6.00;3.77;;;;;;;5.63;95.11;95323.13;4977155;28;20302;-80
2023/12/09 04:26:03;;;;;;;6.10;3.27;;;;;;;5.52;95.44;95315.44;4975235;28;20187;-80
2023/12/09 04:28:28;;;;;;;7.83;4.03;;;;;;;5.45;95.81;95322.84;4991523;28;20199;-80
2023/12/09 04:30:53;;;;;;;8.40;3.30;;;;;;;5.55;94.86;95310.03;4974942;28;20565;-79
2023/12/09 04:33:19;;;;;;;8.33;3.33;;;;;;;5.53;94.94;95323.03;4974648;28;20197;-79
2023/12/09 04:35:45;;;;;;;7.37;3.50;;;;;;;5.46;95.52;95316.72;4989050;28;20254;-80
2023/12/09 04:38:10;;;;;;;6.07;3.23;;;;;;;5.49;94.93;95310.53;4978313;28;20273;-80
2023/12/09 04:40:36;;;;;;;6.60;3.13;;;;;;;5.52;95.41;95318.03;4957861;28;20290;-79
2023/12/09 04:43:01;;;;;;;14.17;3.67;;;;;;;5.47;95.21;95317.56;4991870;28;20191;-80
2023/12/09 04:45:26;;;;;;;5.73;3.50;;;;;;;5.43;95.31;95311.03;4989416;28;20242;-80
2023/12/09 04:47:52;;;;;;;11.10;3.53;;;;;;;5.45;94.99;95324.59;4991572;28;20210;-80
2023/12/09 04:50:17;;;;;;;6.60;3.07;;;;;;;5.30;95.40;95308.59;4971497;28;20606;-79
2023/12/09 04:52:42;;;;;;;11.20;3.40;;;;;;;5.39;95.08;95315.59;4985784;28;20189;-80
2023/12/09 04:55:08;;;;;;;9.33;3.77;;;;;;;5.47;94.62;95320.94;4971501;28;20214;-80
2023/12/09 04:57:33;;;;;;;9.23;3.00;;;;;;;5.43;94.34;95327.28;4973498;28;20215;-80
2023/12/09 04:59:59;;;;;;;8.40;3.40;;;;;;;5.46;95.18;95316.72;4974988;28;20219;-80
2023/12/09 05:02:24;;;;;;;7.07;3.20;;;;;;;5.39;95.71;95320.75;4978693;28;20230;-80
2023/12/09 05:04:49;;;;;;;9.40;3.83;;;;;;;5.48;95.37;95314.88;4973731;28;20228;-79
2023/12/09 05:07:15;;;;;;;6.73;3.20;;;;;;;5.47;95.13;95292.63;4989603;28;20180;-80
2023/12/09 05:09:40;;;;;;;9.27;3.40;;;;;;;5.48;95.00;95298.59;4973937;28;20180;-79
2023/12/09 05:12:06;;;;;;;8.80;3.90;;;;;;;5.38;95.05;95301.88;4976502;28;20562;-79
2023/12/09 05:14:31;;;;;;;6.07;3.33;;;;;;;5.36;95.39;95293.47;4973607;28;20214;-79
2023/12/09 05:16:57;;;;;;;8.40;3.87;;;;;;;5.44;95.13;95289.47;4972829;28;20251;-80
2023/12/09 05:19:22;;;;;;;10.00;3.50;;;;;;;5.39;95.14;95282.94;4973797;28;20199;-79
2023/12/09 05:21:48;;;;;;;8.67;3.73;;;;;;;5.40;95.06;95276.84;4957348;28;20191;-81
2023/12/09 05:24:13;;;;;;;6.33;3.90;;;;;;;5.41;95.14;95285.41;4974020;28;20211;-80
2023/12/09 05:26:38;;;;;;;7.00;3.77;;;;;;;5.17;96.32;95289.91;4991049;28;20661;-79
2023/12/09 05:29:04;;;;;;;11.03;4.13;;;;;;;5.23;96.52;95285.09;4956739;28;21090;-80
2023/12/09 05:31:29;;;;;;;7.47;4.40;;;;;;;5.20;96.42;95276.78;4973561;28;20549;-80
2023/12/09 05:33:54;;;;;;;9.07;6.10;;;;;;;5.08;96.44;95270.84;4974355;28;20210;-80
2023/12/09 05:36:20;;;;;;;11.17;4.77;;;;;;;5.17;96.21;95274.47;4977067;28;20682;-80
2023/12/09 05:38:45;;;;;;;8.67;4.67;;;;;;;5.14;95.73;95270.38;4976285;28;20279;-81
2023/12/09 05:41:10;;;;;;;8.37;4.80;;;;;;;5.17;95.81;95270.13;4961384;28;20187;-80
2023/12/09 05:43:36;;;;;;;9.40;4.93;;;;;;;5.01;96.13;95280.00;4970653;28;20203;-79
2023/12/09 05:46:02;;;;;;;7.97;4.93;;;;;;;4.98;96.56;95275.91;4977763;28;20187;-79
2023/12/09 05:48:28;;;;;;;10.00;5.20;;;;;;;4.99;95.81;95271.59;4959777;28;20301;-80
2023/12/09 05:50:53;;;;;;;9.33;6.57;;;;;;;4.87;96.16;95264.84;4993745;28;20179;-80
2023/12/09 05:53:18;;;;;;;14.93;8.10;;;;;;;4.86;96.27;95268.31;4993581;28;20318;-80
2023/12/09 05:55:44;;;;;;;10.97;6.17;;;;;;;4.95;95.21;95267.63;4977784;28;20188;-80
2023/12/09 05:58:09;;;;;;;9.80;4.97;;;;;;;4.95;95.02;95265.88;4982035;28;20210;-79
2023/12/09 06:00:34;;;;;;;8.90;5.30;;;;;;;4.98;94.18;95267.38;4957887;28;20562;-80
2023/12/09 06:03:00;;;;;;;8.73;4.80;;;;;;;4.79;95.21;95263.66;4975589;28;20214;-79
2023/12/09 06:05:25;;;;;;;8.60;5.17;;;;;;;4.81;95.27;95261.78;4977279;28;20216;-79
2023/12/09 06:07:50;;;;;;;10.63;5.13;;;;;;;4.86;94.67;95260.59;4976415;28;20276;-80
2023/12/09 06:10:16;;;;;;;9.93;4.80;;;;;;;4.73;95.43;95266.72;4977981;28;20225;-80
2023/12/09 06:12:41;;;;;;;9.67;5.00;;;;;;;4.71;96.36;95253.16;4977967;28;20216;-80
2023/12/09 06:15:07;;;;;;;6.80;4.30;;;;;;;4.86;96.15;95258.03;4960939;28;20216;-79
2023/12/09 06:17:32;;;;;;;7.83;4.50;;;;;;;4.85;96.11;95254.63;4976551;28;20203;-79
2023/12/09 06:19:58;;;;;;;9.03;4.53;;;;;;;4.86;96.54;95260.59;4977399;28;20196;-79
2023/12/09 06:22:23;;;;;;;6.90;3.77;;;;;;;4.90;95.77;95249.16;4975589;28;20269;-79
2023/12/09 06:24:49;;;;;;;10.63;4.27;;;;;;;4.96;95.84;95256.41;4976351;28;20204;-80
2023/12/09 06:27:14;;;;;;;6.03;4.20;;;;;;;4.94;95.22;95256.50;4975926;28;20247;-80
2023/12/09 06:29:40;;;;;;;6.47;4.67;;;;;;;4.89;95.82;95248.34;4960727;28;20207;-79
2023/12/09 06:32:05;;;;;;;10.33;5.07;;;;;;;5.02;94.40;95241.25;4958798;28;20256;-80
2023/12/09 06:34:30;;;;;;;14.23;4.90;;;;;;;4.94;95.33;95237.66;4977043;28;20213;-80
2023/12/09 06:36:56;;;;;;;6.47;4.77;;;;;;;5.02;94.45;95233.53;4991671;28;20200;-80
2023/12/09 06:39:21;;;;;;;7.00;4.60;;;;;;;4.88;95.01;95238.16;4974800;28;20284;-80
2023/12/09 06:41:47;;;;;;;8.93;4.13;;;;;;;4.92;94.49;95236.97;4976391;28;20188;-80
2023/12/09 06:44:12;;;;;;;6.97;3.77;;;;;;;4.83;95.01;95239.31;4991389;28;20665;-79
2023/12/09 06:46:38;;;;;;;10.70;4.47;;;;;;;4.87;93.71;95241.69;4953942;28;20240;-80
2023/12/09 06:49:05;;;;;;;9.07;5.30;;;;;;;4.89;93.67;95250.09;4977682;28;20218;-79
2023/12/09 06:51:30;;;;;;;8.23;4.30;;;;;;;4.82;94.22;95245.41;4976848;28;20196;-80
2023/12/09 06:53:57;;;;;;;8.93;4.10;;;;;;;4.84;94.60;95246.09;4976696;28;20257;-80
2023/12/09 06:56:22;;;;;;;8.37;4.20;;;;;;;4.81;94.09;95233.50;4965088;28;20219;-79
2023/12/09 06:58:48;;;;;;;9.57;4.80;;;;;;;4.76;94.77;95230.44;4973620;28;20192;-82
2023/12/09 07:01:21;;;;;;;5.43;4.30;;;;;;;4.85;94.56;95226.34;4976899;28;20203;-81
2023/12/09 07:03:48;;;;;;;8.30;4.53;;;;;;;4.84;94.44;95235.81;4968354;28;20250;-80
2023/12/09 07:06:14;;;;;;;12.33;4.83;;;;;;;4.80;93.92;95241.34;4978950;28;20188;-80
2023/12/09 07:08:39;;;;;;;9.63;5.30;;;;;;;4.79;93.68;95237.94;4977162;28;20612;-82
2023/12/09 07:11:05;;;;;;;7.23;5.03;;;;;;;4.75;94.40;95239.09;4996896;28;20196;-85
2023/12/09 07:16:10;;;;;;;10.23;4.20;;;;;;;4.81;94.64;95245.53;5585052;23;20246;-80
2023/12/09 07:18:40;;;;;;;10.20;4.60;;;;;;;4.65;95.00;95240.75;5004346;28;20285;-79
2023/12/09 07:21:05;;;;;;;6.17;4.50;;;;;;;4.83;94.88;95247.03;4995156;28;20309;-79
2023/12/09 07:23:31;;;;;;;11.67;5.37;;;;;;;4.86;94.91;95240.00;4992559;28;20281;-79
2023/12/09 07:25:56;;;;;;;13.03;5.53;;;;;;;4.92;94.47;95242.94;4990704;28;20186;-79
2023/12/09 07:28:22;;;;;;;9.87;5.50;;;;;;;5.01;94.74;95239.63;4973123;28;20219;-80
2023/12/09 07:30:47;;;;;;;13.50;6.23;;;;;;;5.02;94.08;95245.59;4993253;28;20238;-79
2023/12/09 07:33:12;;;;;;;8.60;5.33;;;;;;;5.04;94.41;95238.59;4976282;28;20246;-80
2023/12/09 07:35:39;;;;;;;10.07;5.50;;;;;;;5.07;94.64;95235.78;4974665;28;20862;-79
2023/12/09 07:38:05;;;;;;;12.43;6.33;;;;;;;5.05;94.67;95240.22;4993307;28;20225;-79
2023/12/09 07:40:30;;;;;;;10.87;5.87;;;;;;;5.17;94.34;95239.25;4994581;28;20194;-80
2023/12/09 07:42:55;;;;;;;14.50;6.30;;;;;;;5.12;94.76;95241.34;4992586;28;20219;-81
2023/12/09 07:45:21;;;;;;;11.93;6.63;;;;;;;5.13;94.85;95242.19;4992519;28;20717;-79
2023/12/09 07:47:46;;;;;;;11.83;6.57;;;;;;;5.31;94.23;95241.53;4974991;28;20277;-78
2023/12/09 07:50:11;;;;;;;16.10;7.50;;;;;;;5.24;94.39;95235.25;4977161;28;20224;-79
2023/12/09 07:52:37;;;;;;;12.13;7.77;;;;;;;5.33;93.42;95234.50;4961536;28;20632;-79
2023/12/09 07:55:02;;;;;;;10.07;7.33;;;;;;;5.04;95.83;95231.69;4980924;28;20215;-78
2023/12/09 07:57:28;;;;;;;10.63;7.70;;;;;;;4.97;95.83;95227.16;4991114;28;20201;-78
2023/12/09 07:59:53;;;;;;;14.23;8.77;;;;;;;5.24;94.93;95229.28;4976198;28;20215;-78
2023/12/09 08:02:18;;;;;;;12.37;7.93;;;;;;;5.27;94.71;95227.28;4991751;28;20223;-78
2023/12/09 08:04:44;;;;;;;10.73;6.60;;;;;;;5.29;94.12;95227.94;4973401;28;20216;-81
2023/12/09 08:07:09;;;;;;;13.73;7.00;;;;;;;5.18;94.82;95224.63;4959147;28;20677;-80
2023/12/09 08:09:35;;;;;;;10.23;6.80;;;;;;;5.27;94.49;95227.28;4994366;28;20281;-80
2023/12/09 08:12:00;;;;;;;18.20;6.10;;;;;;;5.27;94.00;95232.41;4992823;28;20191;-80
2023/12/09 08:14:25;;;;;;;12.13;7.07;;;;;;;5.20;94.83;95223.53;4991994;28;20267;-80
2023/12/09 08:16:51;;;;;;;11.33;6.87;;;;;;;5.40;94.03;95224.53;4989354;28;20322;-81
2023/12/09 08:19:17;;;;;;;10.70;6.80;;;;;;;5.39;94.19;95218.56;4971860;28;20199;-80
2023/12/09 08:21:42;;;;;;;11.43;6.50;;;;;;;5.34;94.47;95225.84;4971190;28;20188;-78
2023/12/09 08:24:07;;;;;;;93.07;40.90;;;;;;;5.40;94.12;95224.53;4975506;28;20311;-79
2023/12/09 08:26:33;;;;;;;27.20;16.33;;;;;;;5.61;93.55;95221.97;4975275;28;20587;-79
2023/12/09 08:29:00;;;;;;;15.13;8.57;;;;;;;5.73;93.17;95223.53;4989272;28;20191;-79
2023/12/09 08:31:25;;;;;;;9.93;7.10;;;;;;;5.70;92.78;95221.22;4973851;28;20271;-77
2023/12/09 08:33:51;;;;;;;11.93;7.37;;;;;;;5.67;93.11;95221.47;4982947;28;20277;-80
2023/12/09 08:36:16;;;;;;;8.47;6.40;;;;;;;5.69;93.18;95211.84;4993239;28;20218;-80
2023/12/09 08:38:41;;;;;;;12.17;6.17;;;;;;;5.86;92.59;95203.56;4970312;28;20209;-80
2023/12/09 08:41:07;;;;;;;13.47;6.67;;;;;;;5.65;93.52;95203.56;4986759;28;20353;-80
2023/12/09 08:43:32;;;;;;;10.17;6.10;;;;;;;5.84;92.84;95205.44;4970306;28;20315;-80
2023/12/09 08:45:57;;;;;;;9.33;6.20;;;;;;;5.93;92.66;95204.72;4985654;28;20192;-80
2023/12/09 08:48:23;;;;;;;9.83;7.23;;;;;;;6.17;92.08;95216.47;4985906;28;20191;-79
2023/12/09 08:50:49;;;;;;;11.40;6.27;;;;;;;6.06;91.99;95216.56;4986917;28;20195;-78
2023/12/09 08:53:14;;;;;;;11.10;6.17;;;;;;;6.42;90.42;95210.88;4989464;28;20646;-80
2023/12/09 08:55:40;;;;;;;10.70;6.83;;;;;;;6.45;90.13;95197.75;4984834;28;20243;-80
2023/12/09 08:58:05;;;;;;;7.77;6.00;;;;;;;6.36;90.52;95189.94;4970668;28;20218;-80
2023/12/09 09:00:30;;;;;;;10.83;6.10;;;;;;;6.46;90.10;95188.25;4963503;28;20217;-80
2023/12/09 09:02:56;;;;;;;8.33;5.53;;;;;;;6.58;89.52;95194.13;4967278;28;20219;-80
2023/12/09 09:05:22;;;;;;;7.67;5.40;;;;;;;6.53;89.47;95192.72;4960501;28;20204;-81
2023/12/09 09:07:48;;;;;;;12.10;6.23;;;;;;;6.62;88.97;95174.81;4968864;28;20187;-81
2023/12/09 09:10:14;;;;;;;7.93;5.67;;;;;;;6.59;89.25;95169.94;4984316;28;20223;-80
2023/12/09 09:12:39;;;;;;;8.67;5.73;;;;;;;6.50;89.62;95184.44;4967248;28;20233;-81
2023/12/09 09:15:05;;;;;;;9.93;6.03;;;;;;;6.47;89.82;95182.97;4978737;28;20224;-81
2023/12/09 09:17:30;;;;;;;9.33;5.60;;;;;;;6.22;91.06;95183.41;4991506;28;20204;-81
2023/12/09 09:19:56;;;;;;;26.07;14.90;;;;;;;6.21;91.87;95187.75;4975003;28;20258;-80
2023/12/09 09:22:21;;;;;;;29.10;18.53;;;;;;;6.41;90.67;95188.63;4976697;28;20205;-81
2023/12/09 09:24:47;;;;;;;22.83;14.77;;;;;;;6.52;90.29;95192.88;4975567;28;20287;-81
2023/12/09 09:27:13;;;;;;;11.27;7.60;;;;;;;6.31;90.90;95169.72;4990648;28;20181;-80
2023/12/09 09:29:39;;;;;;;7.20;5.40;;;;;;;6.55;90.30;95160.84;4989657;28;20194;-81
2023/12/09 09:32:05;;;;;;;9.80;6.27;;;;;;;6.51;90.45;95166.25;4955390;28;20562;-79
2023/12/09 09:34:30;;;;;;;10.67;5.63;;;;;;;6.53;90.21;95154.03;4991538;28;20204;-79
2023/12/09 09:36:55;;;;;;;6.83;5.73;;;;;;;6.61;89.97;95144.81;4990823;28;20211;-80
2023/12/09 09:39:21;;;;;;;7.40;6.00;;;;;;;6.49;90.08;95154.44;4990243;28;20203;-80
2023/12/09 09:41:59;;;;;;;9.07;5.73;;;;;;;6.56;89.63;95147.81;4989432;28;20219;-81
2023/12/09 09:44:27;;;;;;;7.47;5.40;;;;;;;6.63;90.21;95143.75;4969630;28;20216;-80
2023/12/09 09:46:56;;;;;;;8.73;5.80;;;;;;;6.81;89.27;95146.50;4986239;28;20278;-79
2023/12/09 09:49:23;;;;;;;8.10;6.03;;;;;;;6.74;88.63;95140.22;4955638;28;20189;-79
2023/12/09 09:51:52;;;;;;;9.17;6.20;;;;;;;6.81;89.18;95138.75;4987562;28;20588;-80
2023/12/09 09:54:23;;;;;;;6.73;5.30;;;;;;;6.78;88.96;95136.41;4988717;28;20587;-81
2023/12/09 09:56:50;;;;;;;8.20;5.53;;;;;;;6.78;88.51;95128.69;4976919;28;20534;-81
2023/12/09 09:59:18;;;;;;;8.10;5.40;;;;;;;6.73;89.17;95116.19;4958732;28;20192;-80
2023/12/09 10:01:44;;;;;;;7.73;5.40;;;;;;;6.82;88.12;95119.72;4987644;28;20184;-80
2023/12/09 10:04:10;;;;;;;6.10;4.83;;;;;;;6.88;87.73;95115.78;4958541;28;20559;-81
2023/12/09 10:06:36;;;;;;;7.93;5.00;;;;;;;7.01;87.70;95112.00;4973250;28;20254;-80
2023/12/09 10:09:01;;;;;;;6.97;4.67;;;;;;;6.85;87.62;95096.22;4991141;28;20188;-80
2023/12/09 10:11:26;;;;;;;6.67;5.13;;;;;;;6.88;87.38;95087.38;4958795;28;20243;-80
2023/12/09 10:13:52;;;;;;;6.20;4.33;;;;;;;6.83;88.43;95077.50;4975648;28;20239;-80
2023/12/09 10:16:17;;;;;;;7.37;4.87;;;;;;;6.89;88.00;95063.19;4989518;28;20196;-80
2023/12/09 10:18:49;;;;;;;6.87;4.00;;;;;;;6.86;87.88;95071.22;4986763;28;20670;-80
2023/12/09 10:21:15;;;;;;;6.43;3.97;;;;;;;6.91;87.37;95063.91;4990294;28;20184;-79
2023/12/09 10:23:41;;;;;;;5.57;3.90;;;;;;;6.95;87.98;95058.31;4980512;28;20207;-81
2023/12/09 10:26:09;;;;;;;6.87;3.60;;;;;;;7.02;87.20;95046.50;4959142;28;20191;-80
2023/12/09 10:28:35;;;;;;;4.60;3.67;;;;;;;6.78;87.18;95043.53;4975922;28;20192;-77
2023/12/09 10:31:01;;;;;;;6.47;3.23;;;;;;;6.83;87.83;95031.03;4992910;28;20192;-78
2023/12/09 10:33:30;;;;;;;4.47;3.40;;;;;;;7.16;86.51;95036.69;4993321;28;20215;-80
2023/12/09 10:35:57;;;;;;;5.83;3.47;;;;;;;6.98;86.99;95040.00;4993683;28;20192;-79
2023/12/09 10:38:22;;;;;;;5.47;3.77;;;;;;;7.19;86.16;95023.50;4992453;28;20812;-79
2023/12/09 10:40:49;;;;;;;7.57;3.87;;;;;;;7.20;85.70;95031.09;4976549;28;20234;-78
2023/12/09 10:43:15;;;;;;;5.83;3.40;;;;;;;7.15;86.19;95024.72;4955281;28;20272;-79
2023/12/09 10:45:40;;;;;;;6.17;3.97;;;;;;;7.34;85.18;95029.84;4961511;28;20203;-79
2023/12/09 10:48:07;;;;;;;6.80;3.63;;;;;;;7.41;84.89;95027.50;4972345;28;20196;-80
2023/12/09 10:50:33;;;;;;;6.47;3.27;;;;;;;7.54;84.38;95026.25;4977949;28;20183;-79
2023/12/09 10:52:58;;;;;;;5.93;4.60;;;;;;;7.59;84.42;95029.22;4992873;28;20565;-79
2023/12/09 10:55:23;;;;;;;4.97;3.47;;;;;;;7.47;84.37;95019.19;4993271;28;20222;-79
2023/12/09 10:57:50;;;;;;;3.53;3.17;;;;;;;7.64;84.46;95010.69;4977880;28;20215;-79
2023/12/09 11:00:16;;;;;;;6.43;3.50;;;;;;;7.48;83.72;95000.97;4993879;28;20553;-80
2023/12/09 11:02:42;;;;;;;3.87;2.77;;;;;;;7.55;83.61;94991.69;4981981;28;20241;-81
2023/12/09 11:05:09;;;;;;;4.57;2.97;;;;;;;7.65;83.52;94976.16;4976674;28;20207;-78
2023/12/09 11:07:35;;;;;;;4.13;3.43;;;;;;;7.42;83.25;94962.81;4982694;28;20188;-78
2023/12/09 11:10:02;;;;;;;2.90;2.57;;;;;;;7.45;84.00;94944.44;4960291;28;20217;-81
2023/12/09 11:12:28;;;;;;;4.20;2.63;;;;;;;7.45;83.69;94939.25;4997122;28;20188;-79
2023/12/09 11:14:53;;;;;;;3.33;2.73;;;;;;;7.20;84.81;94934.75;4972075;28;20214;-79
2023/12/09 11:17:33;;;;;;;5.37;2.30;;;;;;;7.55;83.68;94916.78;4971856;28;20295;-79
2023/12/09 11:20:13;;;;;;;11.20;4.47;;;;;;;7.42;84.32;94905.97;4989357;28;20215;-80
2023/12/09 11:22:43;;;;;;;2.77;2.20;;;;;;;7.43;83.92;94905.00;4994566;28;20198;-80
2023/12/09 11:25:18;;;;;;;4.67;2.47;;;;;;;7.42;84.16;94903.41;4961541;28;20220;-79
2023/12/09 11:27:43;;;;;;;3.13;2.23;;;;;;;7.47;84.35;94895.19;4989649;28;20218;-80
2023/12/09 11:30:34;;;;;;;3.53;2.23;;;;;;;7.46;84.48;94885.81;4975810;28;20196;-80
2023/12/09 11:33:00;;;;;;;3.83;2.40;;;;;;;7.33;84.56;94871.50;4989674;28;20192;-80
2023/12/09 11:35:26;;;;;;;4.60;2.90;;;;;;;7.31;84.83;94860.47;4975270;28;20214;-80